sensor_id;sensor_type;location;lat;lon;timestamp;P1;durP1;ratioP1;P2;durP2;ratioP2
54831;SDS011;40730;53.068;6.572;2023-07-20T00:01:25;3.65;;;2.88;;
54831;SDS011;40730;53.068;6.572;2023-07-20T00:03:50;2.90;;;2.70;;
54831;SDS011;40730;53.068;6.572;2023-07-20T00:06:23;3.28;;;2.97;;
54831;SDS011;40730;53.068;6.572;2023-07-20T00:08:53;4.93;;;2.90;;
54831;SDS011;40730;53.068;6.572;2023-07-20T00:11:20;2.78;;;2.58;;
54831;SDS011;40730;53.068;6.572;2023-07-20T00:13:46;3.95;;;3.15;;
54831;SDS011;40730;53.068;6.572;2023-07-20T00:16:11;2.38;;;2.15;;
54831;SDS011;40730;53.068;6.572;2023-07-20T00:18:37;2.97;;;2.60;;
54831;SDS011;40730;53.068;6.572;2023-07-20T00:21:03;4.40;;;3.30;;
54831;SDS011;40730;53.068;6.572;2023-07-20T00:23:29;5.53;;;3.67;;
54831;SDS011;40730;53.068;6.572;2023-07-20T00:25:54;5.25;;;3.20;;
54831;SDS011;40730;53.068;6.572;2023-07-20T00:28:20;3.17;;;2.72;;
54831;SDS011;40730;53.068;6.572;2023-07-20T00:30:46;4.15;;;2.35;;
54831;SDS011;40730;53.068;6.572;2023-07-20T00:33:11;4.25;;;3.85;;
54831;SDS011;40730;53.068;6.572;2023-07-20T00:35:38;3.88;;;3.17;;
54831;SDS011;40730;53.068;6.572;2023-07-20T00:38:04;3.47;;;3.17;;
54831;SDS011;40730;53.068;6.572;2023-07-20T00:40:40;4.63;;;3.13;;
54831;SDS011;40730;53.068;6.572;2023-07-20T00:43:06;3.20;;;2.90;;
54831;SDS011;40730;53.068;6.572;2023-07-20T00:45:33;3.95;;;3.40;;
54831;SDS011;40730;53.068;6.572;2023-07-20T00:47:59;4.15;;;3.85;;
54831;SDS011;40730;53.068;6.572;2023-07-20T00:50:26;4.53;;;4.05;;
54831;SDS011;40730;53.068;6.572;2023-07-20T00:52:54;2.83;;;2.63;;
54831;SDS011;40730;53.068;6.572;2023-07-20T00:55:20;4.97;;;3.70;;
54831;SDS011;40730;53.068;6.572;2023-07-20T00:57:46;2.92;;;2.67;;
54831;SDS011;40730;53.068;6.572;2023-07-20T01:00:12;5.30;;;4.25;;
54831;SDS011;40730;53.068;6.572;2023-07-20T01:02:39;7.15;;;4.55;;
54831;SDS011;40730;53.068;6.572;2023-07-20T01:05:05;4.85;;;4.45;;
54831;SDS011;40730;53.068;6.572;2023-07-20T01:07:35;5.40;;;4.90;;
54831;SDS011;40730;53.068;6.572;2023-07-20T01:10:20;4.40;;;4.00;;
54831;SDS011;40730;53.068;6.572;2023-07-20T01:12:47;15.20;;;6.32;;
54831;SDS011;40730;53.068;6.572;2023-07-20T01:15:13;8.70;;;6.55;;
54831;SDS011;40730;53.068;6.572;2023-07-20T01:17:39;5.03;;;4.53;;
54831;SDS011;40730;53.068;6.572;2023-07-20T01:20:08;6.78;;;5.82;;
54831;SDS011;40730;53.068;6.572;2023-07-20T01:31:14;9.00;;;7.13;;
54831;SDS011;40730;53.068;6.572;2023-07-20T01:33:48;7.37;;;5.50;;
54831;SDS011;40730;53.068;6.572;2023-07-20T01:36:16;6.53;;;5.65;;
54831;SDS011;40730;53.068;6.572;2023-07-20T01:38:43;8.77;;;6.88;;
54831;SDS011;40730;53.068;6.572;2023-07-20T01:41:10;9.38;;;7.63;;
54831;SDS011;40730;53.068;6.572;2023-07-20T01:43:36;12.80;;;10.32;;
54831;SDS011;40730;53.068;6.572;2023-07-20T01:46:01;18.65;;;11.02;;
54831;SDS011;40730;53.068;6.572;2023-07-20T01:48:27;21.92;;;8.48;;
54831;SDS011;40730;53.068;6.572;2023-07-20T01:50:53;17.17;;;6.97;;
54831;SDS011;40730;53.068;6.572;2023-07-20T01:53:19;9.38;;;6.75;;
54831;SDS011;40730;53.068;6.572;2023-07-20T01:55:45;44.35;;;8.00;;
54831;SDS011;40730;53.068;6.572;2023-07-20T01:58:11;9.95;;;8.23;;
54831;SDS011;40730;53.068;6.572;2023-07-20T02:00:37;7.03;;;4.93;;
54831;SDS011;40730;53.068;6.572;2023-07-20T02:03:03;10.63;;;8.93;;
54831;SDS011;40730;53.068;6.572;2023-07-20T02:05:29;77.07;;;16.45;;
54831;SDS011;40730;53.068;6.572;2023-07-20T02:07:55;186.57;;;17.63;;
54831;SDS011;40730;53.068;6.572;2023-07-20T02:10:20;191.98;;;21.45;;
54831;SDS011;40730;53.068;6.572;2023-07-20T02:12:46;191.98;;;22.85;;
54831;SDS011;40730;53.068;6.572;2023-07-20T02:15:12;174.50;;;17.92;;
54831;SDS011;40730;53.068;6.572;2023-07-20T02:17:41;123.50;;;18.02;;
54831;SDS011;40730;53.068;6.572;2023-07-20T02:20:07;207.38;;;20.55;;
54831;SDS011;40730;53.068;6.572;2023-07-20T02:22:35;257.33;;;18.35;;
54831;SDS011;40730;53.068;6.572;2023-07-20T02:25:03;208.93;;;17.25;;
54831;SDS011;40730;53.068;6.572;2023-07-20T02:27:32;118.88;;;16.48;;
54831;SDS011;40730;53.068;6.572;2023-07-20T02:29:58;51.40;;;16.65;;
54831;SDS011;40730;53.068;6.572;2023-07-20T02:32:24;45.60;;;16.02;;
54831;SDS011;40730;53.068;6.572;2023-07-20T02:34:49;84.97;;;21.60;;
54831;SDS011;40730;53.068;6.572;2023-07-20T02:37:16;31.75;;;14.63;;
54831;SDS011;40730;53.068;6.572;2023-07-20T02:39:41;21.33;;;13.63;;
54831;SDS011;40730;53.068;6.572;2023-07-20T02:42:07;34.28;;;16.23;;
54831;SDS011;40730;53.068;6.572;2023-07-20T02:44:33;21.55;;;13.57;;
54831;SDS011;40730;53.068;6.572;2023-07-20T02:46:58;86.15;;;18.83;;
54831;SDS011;40730;53.068;6.572;2023-07-20T02:49:24;43.15;;;15.48;;
54831;SDS011;40730;53.068;6.572;2023-07-20T02:51:50;16.58;;;10.82;;
54831;SDS011;40730;53.068;6.572;2023-07-20T02:54:15;26.15;;;13.35;;
54831;SDS011;40730;53.068;6.572;2023-07-20T02:56:41;16.25;;;11.60;;
54831;SDS011;40730;53.068;6.572;2023-07-20T02:59:07;18.42;;;12.05;;
54831;SDS011;40730;53.068;6.572;2023-07-20T03:01:33;20.30;;;12.85;;
54831;SDS011;40730;53.068;6.572;2023-07-20T03:03:59;19.15;;;12.65;;
54831;SDS011;40730;53.068;6.572;2023-07-20T03:06:25;16.42;;;11.35;;
54831;SDS011;40730;53.068;6.572;2023-07-20T03:08:50;20.25;;;12.52;;
54831;SDS011;40730;53.068;6.572;2023-07-20T03:11:18;17.67;;;9.98;;
54831;SDS011;40730;53.068;6.572;2023-07-20T03:13:45;10.43;;;6.68;;
54831;SDS011;40730;53.068;6.572;2023-07-20T03:16:12;5.60;;;5.05;;
54831;SDS011;40730;53.068;6.572;2023-07-20T03:18:40;6.53;;;4.93;;
54831;SDS011;40730;53.068;6.572;2023-07-20T03:21:07;3.72;;;3.40;;
54831;SDS011;40730;53.068;6.572;2023-07-20T03:23:36;12.55;;;8.23;;
54831;SDS011;40730;53.068;6.572;2023-07-20T03:26:02;6.43;;;4.28;;
54831;SDS011;40730;53.068;6.572;2023-07-20T03:28:28;5.05;;;4.03;;
54831;SDS011;40730;53.068;6.572;2023-07-20T03:30:54;3.83;;;3.50;;
54831;SDS011;40730;53.068;6.572;2023-07-20T03:33:21;7.55;;;3.17;;
54831;SDS011;40730;53.068;6.572;2023-07-20T03:35:47;308.30;;;10.27;;
54831;SDS011;40730;53.068;6.572;2023-07-20T03:38:13;110.90;;;5.82;;
54831;SDS011;40730;53.068;6.572;2023-07-20T03:40:38;6.70;;;3.58;;
54831;SDS011;40730;53.068;6.572;2023-07-20T03:43:04;4.30;;;2.88;;
54831;SDS011;40730;53.068;6.572;2023-07-20T03:45:30;3.95;;;3.08;;
54831;SDS011;40730;53.068;6.572;2023-07-20T03:47:55;3.88;;;3.40;;
54831;SDS011;40730;53.068;6.572;2023-07-20T03:50:21;6.95;;;4.05;;
54831;SDS011;40730;53.068;6.572;2023-07-20T03:52:47;7.25;;;4.40;;
54831;SDS011;40730;53.068;6.572;2023-07-20T03:55:12;7.70;;;3.90;;
54831;SDS011;40730;53.068;6.572;2023-07-20T03:57:39;5.90;;;4.55;;
54831;SDS011;40730;53.068;6.572;2023-07-20T04:00:04;6.55;;;4.45;;
54831;SDS011;40730;53.068;6.572;2023-07-20T04:02:32;7.68;;;5.68;;
54831;SDS011;40730;53.068;6.572;2023-07-20T04:04:58;9.05;;;7.05;;
54831;SDS011;40730;53.068;6.572;2023-07-20T04:07:24;12.85;;;7.72;;
54831;SDS011;40730;53.068;6.572;2023-07-20T04:09:49;16.92;;;9.23;;
54831;SDS011;40730;53.068;6.572;2023-07-20T04:12:15;15.00;;;10.60;;
54831;SDS011;40730;53.068;6.572;2023-07-20T04:14:41;13.15;;;9.77;;
54831;SDS011;40730;53.068;6.572;2023-07-20T04:17:07;16.08;;;10.13;;
54831;SDS011;40730;53.068;6.572;2023-07-20T04:19:32;14.90;;;10.38;;
54831;SDS011;40730;53.068;6.572;2023-07-20T04:21:58;14.68;;;10.38;;
54831;SDS011;40730;53.068;6.572;2023-07-20T04:24:24;15.57;;;10.65;;
54831;SDS011;40730;53.068;6.572;2023-07-20T04:26:49;12.98;;;9.88;;
54831;SDS011;40730;53.068;6.572;2023-07-20T04:29:15;10.85;;;8.18;;
54831;SDS011;40730;53.068;6.572;2023-07-20T04:31:41;11.40;;;8.68;;
54831;SDS011;40730;53.068;6.572;2023-07-20T04:34:06;15.95;;;10.20;;
54831;SDS011;40730;53.068;6.572;2023-07-20T04:36:32;12.07;;;8.23;;
54831;SDS011;40730;53.068;6.572;2023-07-20T04:38:57;11.80;;;8.35;;
54831;SDS011;40730;53.068;6.572;2023-07-20T04:41:23;14.77;;;7.90;;
54831;SDS011;40730;53.068;6.572;2023-07-20T04:43:50;9.18;;;7.47;;
54831;SDS011;40730;53.068;6.572;2023-07-20T04:46:15;7.93;;;7.10;;
54831;SDS011;40730;53.068;6.572;2023-07-20T04:48:43;10.30;;;6.97;;
54831;SDS011;40730;53.068;6.572;2023-07-20T04:51:08;8.88;;;7.60;;
54831;SDS011;40730;53.068;6.572;2023-07-20T04:53:35;9.05;;;8.15;;
54831;SDS011;40730;53.068;6.572;2023-07-20T04:56:01;7.95;;;6.97;;
54831;SDS011;40730;53.068;6.572;2023-07-20T04:58:26;9.45;;;7.30;;
54831;SDS011;40730;53.068;6.572;2023-07-20T05:00:52;6.65;;;5.97;;
54831;SDS011;40730;53.068;6.572;2023-07-20T05:03:18;10.93;;;8.00;;
54831;SDS011;40730;53.068;6.572;2023-07-20T05:05:44;7.75;;;6.97;;
54831;SDS011;40730;53.068;6.572;2023-07-20T05:08:09;8.57;;;6.10;;
54831;SDS011;40730;53.068;6.572;2023-07-20T05:10:35;8.50;;;5.47;;
54831;SDS011;40730;53.068;6.572;2023-07-20T05:13:01;7.40;;;5.60;;
54831;SDS011;40730;53.068;6.572;2023-07-20T05:15:26;6.45;;;5.72;;
54831;SDS011;40730;53.068;6.572;2023-07-20T05:17:52;6.95;;;5.47;;
54831;SDS011;40730;53.068;6.572;2023-07-20T05:20:17;6.20;;;5.53;;
54831;SDS011;40730;53.068;6.572;2023-07-20T05:22:43;7.65;;;5.72;;
54831;SDS011;40730;53.068;6.572;2023-07-20T05:25:10;7.82;;;5.63;;
54831;SDS011;40730;53.068;6.572;2023-07-20T05:27:36;5.70;;;5.10;;
54831;SDS011;40730;53.068;6.572;2023-07-20T05:30:02;7.80;;;5.32;;
54831;SDS011;40730;53.068;6.572;2023-07-20T05:32:29;5.78;;;5.18;;
54831;SDS011;40730;53.068;6.572;2023-07-20T05:34:55;5.00;;;4.50;;
54831;SDS011;40730;53.068;6.572;2023-07-20T05:37:21;6.97;;;4.88;;
54831;SDS011;40730;53.068;6.572;2023-07-20T05:39:46;4.30;;;3.85;;
54831;SDS011;40730;53.068;6.572;2023-07-20T05:42:12;4.32;;;3.90;;
54831;SDS011;40730;53.068;6.572;2023-07-20T05:44:38;5.28;;;3.75;;
54831;SDS011;40730;53.068;6.572;2023-07-20T05:47:04;6.32;;;3.30;;
54831;SDS011;40730;53.068;6.572;2023-07-20T05:49:30;7.10;;;3.00;;
54831;SDS011;40730;53.068;6.572;2023-07-20T05:51:56;3.83;;;2.63;;
54831;SDS011;40730;53.068;6.572;2023-07-20T05:54:23;4.10;;;2.70;;
54831;SDS011;40730;53.068;6.572;2023-07-20T05:56:49;5.13;;;2.50;;
54831;SDS011;40730;53.068;6.572;2023-07-20T05:59:15;7.57;;;2.72;;
54831;SDS011;40730;53.068;6.572;2023-07-20T06:01:41;4.15;;;2.05;;
54831;SDS011;40730;53.068;6.572;2023-07-20T06:04:07;4.05;;;2.40;;
54831;SDS011;40730;53.068;6.572;2023-07-20T06:06:33;5.70;;;2.25;;
54831;SDS011;40730;53.068;6.572;2023-07-20T06:08:59;2.35;;;2.03;;
54831;SDS011;40730;53.068;6.572;2023-07-20T06:11:29;3.30;;;2.30;;
54831;SDS011;40730;53.068;6.572;2023-07-20T06:13:55;4.90;;;2.17;;
54831;SDS011;40730;53.068;6.572;2023-07-20T06:16:22;6.20;;;1.90;;
54831;SDS011;40730;53.068;6.572;2023-07-20T06:18:47;3.83;;;1.95;;
54831;SDS011;40730;53.068;6.572;2023-07-20T06:21:13;6.60;;;2.10;;
54831;SDS011;40730;53.068;6.572;2023-07-20T06:23:39;3.50;;;1.80;;
54831;SDS011;40730;53.068;6.572;2023-07-20T06:26:06;5.93;;;1.58;;
54831;SDS011;40730;53.068;6.572;2023-07-20T06:28:32;2.13;;;1.58;;
54831;SDS011;40730;53.068;6.572;2023-07-20T06:31:01;3.80;;;1.10;;
54831;SDS011;40730;53.068;6.572;2023-07-20T06:33:28;4.05;;;1.45;;
54831;SDS011;40730;53.068;6.572;2023-07-20T06:35:54;2.35;;;0.98;;
54831;SDS011;40730;53.068;6.572;2023-07-20T06:38:21;2.88;;;0.63;;
54831;SDS011;40730;53.068;6.572;2023-07-20T06:40:48;5.85;;;1.73;;
54831;SDS011;40730;53.068;6.572;2023-07-20T06:43:14;4.28;;;0.60;;
54831;SDS011;40730;53.068;6.572;2023-07-20T06:45:41;2.72;;;0.60;;
54831;SDS011;40730;53.068;6.572;2023-07-20T06:48:06;2.38;;;0.40;;
54831;SDS011;40730;53.068;6.572;2023-07-20T06:50:32;1.27;;;0.40;;
54831;SDS011;40730;53.068;6.572;2023-07-20T06:52:59;1.73;;;0.30;;
54831;SDS011;40730;53.068;6.572;2023-07-20T06:55:25;2.45;;;0.30;;
54831;SDS011;40730;53.068;6.572;2023-07-20T06:57:51;3.70;;;0.20;;
54831;SDS011;40730;53.068;6.572;2023-07-20T07:00:17;2.08;;;0.20;;
54831;SDS011;40730;53.068;6.572;2023-07-20T07:02:43;6.43;;;0.30;;
54831;SDS011;40730;53.068;6.572;2023-07-20T07:05:08;4.07;;;0.30;;
54831;SDS011;40730;53.068;6.572;2023-07-20T07:07:34;2.88;;;0.20;;
54831;SDS011;40730;53.068;6.572;2023-07-20T07:10:00;1.23;;;0.20;;
54831;SDS011;40730;53.068;6.572;2023-07-20T07:12:29;3.97;;;0.30;;
54831;SDS011;40730;53.068;6.572;2023-07-20T07:14:55;3.70;;;0.30;;
54831;SDS011;40730;53.068;6.572;2023-07-20T07:17:20;1.50;;;0.25;;
54831;SDS011;40730;53.068;6.572;2023-07-20T07:19:46;2.50;;;0.20;;
54831;SDS011;40730;53.068;6.572;2023-07-20T07:22:12;2.55;;;0.20;;
54831;SDS011;40730;53.068;6.572;2023-07-20T07:24:38;3.92;;;1.30;;
54831;SDS011;40730;53.068;6.572;2023-07-20T07:27:06;2.35;;;0.20;;
54831;SDS011;40730;53.068;6.572;2023-07-20T07:29:33;2.97;;;0.63;;
54831;SDS011;40730;53.068;6.572;2023-07-20T07:31:59;3.05;;;0.30;;
54831;SDS011;40730;53.068;6.572;2023-07-20T07:34:24;1.77;;;0.35;;
54831;SDS011;40730;53.068;6.572;2023-07-20T07:36:51;1.58;;;0.30;;
54831;SDS011;40730;53.068;6.572;2023-07-20T07:39:16;2.72;;;0.70;;
54831;SDS011;40730;53.068;6.572;2023-07-20T07:41:42;3.20;;;0.22;;
54831;SDS011;40730;53.068;6.572;2023-07-20T07:44:08;5.15;;;0.30;;
54831;SDS011;40730;53.068;6.572;2023-07-20T07:46:33;3.58;;;0.40;;
54831;SDS011;40730;53.068;6.572;2023-07-20T07:48:59;2.28;;;0.20;;
54831;SDS011;40730;53.068;6.572;2023-07-20T07:51:24;4.03;;;0.50;;
54831;SDS011;40730;53.068;6.572;2023-07-20T07:53:52;2.92;;;0.30;;
54831;SDS011;40730;53.068;6.572;2023-07-20T07:56:18;2.53;;;0.38;;
54831;SDS011;40730;53.068;6.572;2023-07-20T07:58:48;6.70;;;0.40;;
54831;SDS011;40730;53.068;6.572;2023-07-20T08:01:14;4.57;;;0.77;;
54831;SDS011;40730;53.068;6.572;2023-07-20T08:03:39;1.88;;;0.45;;
54831;SDS011;40730;53.068;6.572;2023-07-20T08:06:05;1.10;;;0.40;;
54831;SDS011;40730;53.068;6.572;2023-07-20T08:08:31;2.20;;;0.40;;
54831;SDS011;40730;53.068;6.572;2023-07-20T08:10:57;4.38;;;0.35;;
54831;SDS011;40730;53.068;6.572;2023-07-20T08:13:23;2.85;;;0.30;;
54831;SDS011;40730;53.068;6.572;2023-07-20T08:15:50;4.15;;;0.80;;
54831;SDS011;40730;53.068;6.572;2023-07-20T08:18:19;4.82;;;0.30;;
54831;SDS011;40730;53.068;6.572;2023-07-20T08:20:45;6.20;;;0.40;;
54831;SDS011;40730;53.068;6.572;2023-07-20T08:23:11;2.38;;;0.40;;
54831;SDS011;40730;53.068;6.572;2023-07-20T08:25:38;3.25;;;0.30;;
54831;SDS011;40730;53.068;6.572;2023-07-20T08:28:06;1.55;;;0.40;;
54831;SDS011;40730;53.068;6.572;2023-07-20T08:30:46;3.65;;;0.30;;
54831;SDS011;40730;53.068;6.572;2023-07-20T08:33:13;3.38;;;0.35;;
54831;SDS011;40730;53.068;6.572;2023-07-20T08:35:40;2.65;;;0.30;;
54831;SDS011;40730;53.068;6.572;2023-07-20T08:38:06;2.33;;;0.30;;
54831;SDS011;40730;53.068;6.572;2023-07-20T08:40:32;2.05;;;0.30;;
54831;SDS011;40730;53.068;6.572;2023-07-20T08:42:59;3.60;;;0.75;;
54831;SDS011;40730;53.068;6.572;2023-07-20T08:45:28;3.95;;;0.50;;
54831;SDS011;40730;53.068;6.572;2023-07-20T08:47:55;2.58;;;0.38;;
54831;SDS011;40730;53.068;6.572;2023-07-20T08:50:22;2.17;;;0.38;;
54831;SDS011;40730;53.068;6.572;2023-07-20T08:52:48;3.67;;;0.40;;
54831;SDS011;40730;53.068;6.572;2023-07-20T08:55:15;2.38;;;0.47;;
54831;SDS011;40730;53.068;6.572;2023-07-20T08:57:40;3.80;;;0.70;;
54831;SDS011;40730;53.068;6.572;2023-07-20T09:00:11;4.85;;;0.63;;
54831;SDS011;40730;53.068;6.572;2023-07-20T09:02:38;2.72;;;0.60;;
54831;SDS011;40730;53.068;6.572;2023-07-20T09:05:08;2.72;;;0.40;;
54831;SDS011;40730;53.068;6.572;2023-07-20T09:07:35;2.33;;;0.40;;
54831;SDS011;40730;53.068;6.572;2023-07-20T09:10:02;3.10;;;0.40;;
54831;SDS011;40730;53.068;6.572;2023-07-20T09:12:35;2.33;;;0.45;;
54831;SDS011;40730;53.068;6.572;2023-07-20T09:15:02;2.28;;;0.40;;
54831;SDS011;40730;53.068;6.572;2023-07-20T09:17:28;2.40;;;0.20;;
54831;SDS011;40730;53.068;6.572;2023-07-20T09:19:53;5.25;;;0.70;;
54831;SDS011;40730;53.068;6.572;2023-07-20T09:22:19;1.75;;;0.45;;
54831;SDS011;40730;53.068;6.572;2023-07-20T09:24:45;2.75;;;0.40;;
54831;SDS011;40730;53.068;6.572;2023-07-20T09:27:10;2.97;;;0.40;;
54831;SDS011;40730;53.068;6.572;2023-07-20T09:29:49;3.15;;;0.70;;
54831;SDS011;40730;53.068;6.572;2023-07-20T09:32:19;2.45;;;0.60;;
54831;SDS011;40730;53.068;6.572;2023-07-20T09:34:46;2.42;;;0.28;;
54831;SDS011;40730;53.068;6.572;2023-07-20T09:37:12;2.28;;;0.30;;
54831;SDS011;40730;53.068;6.572;2023-07-20T09:39:44;2.85;;;0.30;;
54831;SDS011;40730;53.068;6.572;2023-07-20T09:42:13;2.78;;;0.30;;
54831;SDS011;40730;53.068;6.572;2023-07-20T09:44:39;1.17;;;0.38;;
54831;SDS011;40730;53.068;6.572;2023-07-20T09:47:08;2.30;;;0.22;;
54831;SDS011;40730;53.068;6.572;2023-07-20T09:49:40;2.33;;;0.30;;
54831;SDS011;40730;53.068;6.572;2023-07-20T09:52:07;2.08;;;0.20;;
54831;SDS011;40730;53.068;6.572;2023-07-20T09:54:34;1.90;;;0.30;;
54831;SDS011;40730;53.068;6.572;2023-07-20T09:57:03;1.55;;;0.20;;
54831;SDS011;40730;53.068;6.572;2023-07-20T09:59:31;3.17;;;0.30;;
54831;SDS011;40730;53.068;6.572;2023-07-20T10:01:57;1.48;;;0.25;;
54831;SDS011;40730;53.068;6.572;2023-07-20T10:04:26;1.90;;;0.20;;
54831;SDS011;40730;53.068;6.572;2023-07-20T10:06:53;1.60;;;0.20;;
54831;SDS011;40730;53.068;6.572;2023-07-20T10:09:21;3.65;;;0.35;;
54831;SDS011;40730;53.068;6.572;2023-07-20T10:11:52;1.75;;;0.30;;
54831;SDS011;40730;53.068;6.572;2023-07-20T10:14:21;2.05;;;0.40;;
54831;SDS011;40730;53.068;6.572;2023-07-20T10:16:49;1.65;;;0.20;;
54831;SDS011;40730;53.068;6.572;2023-07-20T10:19:24;3.22;;;0.30;;
54831;SDS011;40730;53.068;6.572;2023-07-20T10:22:17;1.70;;;0.15;;
54831;SDS011;40730;53.068;6.572;2023-07-20T10:24:48;4.78;;;0.30;;
54831;SDS011;40730;53.068;6.572;2023-07-20T10:27:15;2.13;;;0.20;;
54831;SDS011;40730;53.068;6.572;2023-07-20T10:29:40;3.00;;;0.15;;
54831;SDS011;40730;53.068;6.572;2023-07-20T10:32:07;1.00;;;0.20;;
54831;SDS011;40730;53.068;6.572;2023-07-20T10:34:34;0.77;;;0.20;;
54831;SDS011;40730;53.068;6.572;2023-07-20T10:37:00;1.35;;;0.10;;
54831;SDS011;40730;53.068;6.572;2023-07-20T10:39:26;3.85;;;0.20;;
54831;SDS011;40730;53.068;6.572;2023-07-20T10:41:59;1.10;;;0.20;;
54831;SDS011;40730;53.068;6.572;2023-07-20T10:44:38;1.27;;;0.10;;
54831;SDS011;40730;53.068;6.572;2023-07-20T10:47:11;2.20;;;0.17;;
54831;SDS011;40730;53.068;6.572;2023-07-20T10:52:25;2.13;;;0.17;;
54831;SDS011;40730;53.068;6.572;2023-07-20T10:57:35;2.50;;;0.20;;
54831;SDS011;40730;53.068;6.572;2023-07-20T11:00:10;1.52;;;0.20;;
54831;SDS011;40730;53.068;6.572;2023-07-20T11:02:58;3.08;;;0.20;;
54831;SDS011;40730;53.068;6.572;2023-07-20T11:05:34;2.88;;;0.20;;
54831;SDS011;40730;53.068;6.572;2023-07-20T11:08:04;1.98;;;0.20;;
54831;SDS011;40730;53.068;6.572;2023-07-20T11:10:37;4.43;;;0.28;;
54831;SDS011;40730;53.068;6.572;2023-07-20T11:13:22;1.30;;;0.28;;
54831;SDS011;40730;53.068;6.572;2023-07-20T11:16:01;2.60;;;0.23;;
54831;SDS011;40730;53.068;6.572;2023-07-20T11:18:32;3.53;;;0.20;;
54831;SDS011;40730;53.068;6.572;2023-07-20T11:20:59;1.45;;;0.10;;
54831;SDS011;40730;53.068;6.572;2023-07-20T11:23:25;1.15;;;0.17;;
54831;SDS011;40730;53.068;6.572;2023-07-20T11:25:51;0.60;;;0.10;;
54831;SDS011;40730;53.068;6.572;2023-07-20T11:28:16;1.60;;;0.13;;
54831;SDS011;40730;53.068;6.572;2023-07-20T11:30:42;2.90;;;0.25;;
54831;SDS011;40730;53.068;6.572;2023-07-20T11:33:08;2.88;;;0.28;;
54831;SDS011;40730;53.068;6.572;2023-07-20T11:35:43;1.90;;;0.20;;
54831;SDS011;40730;53.068;6.572;2023-07-20T11:38:11;2.20;;;0.17;;
54831;SDS011;40730;53.068;6.572;2023-07-20T11:40:42;3.17;;;0.25;;
54831;SDS011;40730;53.068;6.572;2023-07-20T11:43:09;1.33;;;0.20;;
54831;SDS011;40730;53.068;6.572;2023-07-20T11:45:37;3.70;;;0.38;;
54831;SDS011;40730;53.068;6.572;2023-07-20T11:48:03;1.30;;;0.10;;
54831;SDS011;40730;53.068;6.572;2023-07-20T11:50:28;0.73;;;0.20;;
54831;SDS011;40730;53.068;6.572;2023-07-20T11:52:54;1.20;;;0.35;;
54831;SDS011;40730;53.068;6.572;2023-07-20T11:55:21;1.98;;;0.20;;
54831;SDS011;40730;53.068;6.572;2023-07-20T11:58:06;1.92;;;0.35;;
54831;SDS011;40730;53.068;6.572;2023-07-20T12:00:33;1.67;;;0.28;;
54831;SDS011;40730;53.068;6.572;2023-07-20T12:03:00;2.97;;;0.20;;
54831;SDS011;40730;53.068;6.572;2023-07-20T12:05:26;3.10;;;0.20;;
54831;SDS011;40730;53.068;6.572;2023-07-20T12:07:52;2.10;;;0.30;;
54831;SDS011;40730;53.068;6.572;2023-07-20T12:10:25;3.78;;;0.30;;
54831;SDS011;40730;53.068;6.572;2023-07-20T12:12:53;0.88;;;0.15;;
54831;SDS011;40730;53.068;6.572;2023-07-20T12:15:22;3.33;;;0.25;;
54831;SDS011;40730;53.068;6.572;2023-07-20T12:17:52;3.10;;;0.20;;
54831;SDS011;40730;53.068;6.572;2023-07-20T12:20:28;3.30;;;0.85;;
54831;SDS011;40730;53.068;6.572;2023-07-20T12:23:03;3.25;;;0.25;;
54831;SDS011;40730;53.068;6.572;2023-07-20T12:25:42;1.23;;;0.20;;
54831;SDS011;40730;53.068;6.572;2023-07-20T12:28:12;2.03;;;0.20;;
54831;SDS011;40730;53.068;6.572;2023-07-20T12:30:45;2.05;;;0.38;;
54831;SDS011;40730;53.068;6.572;2023-07-20T12:33:12;2.13;;;0.20;;
54831;SDS011;40730;53.068;6.572;2023-07-20T12:35:41;2.65;;;0.30;;
54831;SDS011;40730;53.068;6.572;2023-07-20T12:38:08;1.08;;;0.20;;
54831;SDS011;40730;53.068;6.572;2023-07-20T12:40:34;2.20;;;0.20;;
54831;SDS011;40730;53.068;6.572;2023-07-20T12:43:00;1.17;;;0.20;;
54831;SDS011;40730;53.068;6.572;2023-07-20T12:45:25;2.42;;;0.20;;
54831;SDS011;40730;53.068;6.572;2023-07-20T12:47:51;2.15;;;0.20;;
54831;SDS011;40730;53.068;6.572;2023-07-20T12:50:17;2.05;;;0.20;;
54831;SDS011;40730;53.068;6.572;2023-07-20T12:52:43;1.83;;;0.30;;
54831;SDS011;40730;53.068;6.572;2023-07-20T12:55:09;3.40;;;0.30;;
54831;SDS011;40730;53.068;6.572;2023-07-20T12:57:35;1.27;;;0.30;;
54831;SDS011;40730;53.068;6.572;2023-07-20T13:00:05;2.30;;;0.10;;
54831;SDS011;40730;53.068;6.572;2023-07-20T13:02:35;1.60;;;0.10;;
54831;SDS011;40730;53.068;6.572;2023-07-20T13:05:01;0.95;;;0.20;;
54831;SDS011;40730;53.068;6.572;2023-07-20T13:07:31;1.15;;;0.20;;
54831;SDS011;40730;53.068;6.572;2023-07-20T13:10:01;1.63;;;0.20;;
54831;SDS011;40730;53.068;6.572;2023-07-20T13:12:29;1.10;;;0.30;;
54831;SDS011;40730;53.068;6.572;2023-07-20T13:14:55;2.55;;;0.30;;
54831;SDS011;40730;53.068;6.572;2023-07-20T13:17:24;2.05;;;0.22;;
54831;SDS011;40730;53.068;6.572;2023-07-20T13:19:50;1.33;;;0.20;;
54831;SDS011;40730;53.068;6.572;2023-07-20T13:22:15;1.50;;;0.30;;
54831;SDS011;40730;53.068;6.572;2023-07-20T13:24:41;0.70;;;0.17;;
54831;SDS011;40730;53.068;6.572;2023-07-20T13:27:09;1.52;;;0.30;;
54831;SDS011;40730;53.068;6.572;2023-07-20T13:29:34;1.63;;;0.40;;
54831;SDS011;40730;53.068;6.572;2023-07-20T13:32:00;1.00;;;0.20;;
54831;SDS011;40730;53.068;6.572;2023-07-20T13:34:26;2.35;;;0.30;;
54831;SDS011;40730;53.068;6.572;2023-07-20T13:36:51;1.60;;;0.20;;
54831;SDS011;40730;53.068;6.572;2023-07-20T13:39:17;1.10;;;0.30;;
54831;SDS011;40730;53.068;6.572;2023-07-20T13:41:43;1.38;;;0.43;;
54831;SDS011;40730;53.068;6.572;2023-07-20T13:44:09;2.00;;;0.20;;
54831;SDS011;40730;53.068;6.572;2023-07-20T13:46:35;1.10;;;0.28;;
54831;SDS011;40730;53.068;6.572;2023-07-20T13:49:01;1.35;;;0.20;;
54831;SDS011;40730;53.068;6.572;2023-07-20T13:51:27;2.25;;;0.30;;
54831;SDS011;40730;53.068;6.572;2023-07-20T13:53:52;2.20;;;0.20;;
54831;SDS011;40730;53.068;6.572;2023-07-20T13:56:18;2.13;;;0.22;;
54831;SDS011;40730;53.068;6.572;2023-07-20T13:58:44;1.08;;;0.20;;
54831;SDS011;40730;53.068;6.572;2023-07-20T14:01:09;1.15;;;0.15;;
54831;SDS011;40730;53.068;6.572;2023-07-20T14:03:35;3.47;;;0.60;;
54831;SDS011;40730;53.068;6.572;2023-07-20T14:06:02;1.55;;;0.30;;
54831;SDS011;40730;53.068;6.572;2023-07-20T14:08:28;3.75;;;0.65;;
54831;SDS011;40730;53.068;6.572;2023-07-20T14:10:55;1.52;;;0.30;;
54831;SDS011;40730;53.068;6.572;2023-07-20T14:13:20;1.20;;;0.28;;
54831;SDS011;40730;53.068;6.572;2023-07-20T14:15:46;3.35;;;0.30;;
54831;SDS011;40730;53.068;6.572;2023-07-20T14:18:11;1.67;;;0.22;;
54831;SDS011;40730;53.068;6.572;2023-07-20T14:20:37;1.55;;;0.50;;
54831;SDS011;40730;53.068;6.572;2023-07-20T14:23:03;2.03;;;0.28;;
54831;SDS011;40730;53.068;6.572;2023-07-20T14:25:28;2.03;;;0.50;;
54831;SDS011;40730;53.068;6.572;2023-07-20T14:27:54;1.90;;;0.20;;
54831;SDS011;40730;53.068;6.572;2023-07-20T14:30:20;2.33;;;0.30;;
54831;SDS011;40730;53.068;6.572;2023-07-20T14:32:45;4.28;;;0.30;;
54831;SDS011;40730;53.068;6.572;2023-07-20T14:35:11;2.47;;;0.30;;
54831;SDS011;40730;53.068;6.572;2023-07-20T14:37:36;3.30;;;0.10;;
54831;SDS011;40730;53.068;6.572;2023-07-20T14:40:02;1.67;;;0.25;;
54831;SDS011;40730;53.068;6.572;2023-07-20T14:42:30;0.45;;;0.10;;
54831;SDS011;40730;53.068;6.572;2023-07-20T14:44:57;2.22;;;0.20;;
54831;SDS011;40730;53.068;6.572;2023-07-20T14:47:23;3.20;;;0.30;;
54831;SDS011;40730;53.068;6.572;2023-07-20T14:49:48;4.13;;;0.25;;
54831;SDS011;40730;53.068;6.572;2023-07-20T14:52:14;1.52;;;0.10;;
54831;SDS011;40730;53.068;6.572;2023-07-20T14:54:40;1.45;;;0.20;;
54831;SDS011;40730;53.068;6.572;2023-07-20T14:57:06;3.28;;;0.30;;